KROA/ROA METAR and TAF weather

Enter ICAO airport designator
Station Type Date Time Source
KROA METAR 2021/10/22 18:54 UTC NOAA

KROA 221854Z 27013KT 10SM BKN048 BKN200 19/08 A2998 RMK AO2 WSHFT 1812 SLP146 T01940078


Station Type Date Time Source
KROA Decoded METAR 2021/10/22 18:54 UTC NOAA

ROANOKE REGIONAL AIRPORT, VA, United States (KROA) 37-19N 079-58W 362M
Oct 22, 2021 - 02:54 PM EDT / 2021.10.22 1854 UTC
Wind: from the W (270 degrees) at 15 MPH (13 KT):0
Visibility: 10 mile(s):0
Sky conditions: mostly cloudy
Temperature: 66.9 F (19.4 C)
Dew Point: 46.0 F (7.8 C)
Relative Humidity: 46%
Pressure (altimeter): 29.98 in. Hg (1015 hPa)
ob: KROA 221854Z 27013KT 10SM BKN048 BKN200 19/08 A2998 RMK AO2 WSHFT 1812 SLP146 T01940078
cycle: 19

Station Type Date Time Source
KROA TAF 2021/10/22 18:22 UTC NOAA

TAF KROA 221720Z 2218/2318 31008KT P6SM BKN060
FM222000 31008KT P6SM BKN100
FM231300 29006KT P6SM SCT150

Example: see airport list